createdAt,value
2022-12-17T00:01:34.409Z,66.98
2022-12-17T00:04:01.261Z,65.93
2022-12-17T00:06:28.102Z,66.32
2022-12-17T00:08:54.977Z,65.75
2022-12-17T00:11:21.630Z,65.84
2022-12-17T00:13:48.285Z,66.46
2022-12-17T00:16:15.863Z,65.88
2022-12-17T00:18:42.537Z,66.65
2022-12-17T00:21:09.219Z,66.04
2022-12-17T00:23:36.898Z,66.08
2022-12-17T00:26:03.893Z,67.09
2022-12-17T00:28:30.688Z,66.18
2022-12-17T00:30:57.311Z,66.25
2022-12-17T00:33:23.939Z,66.16
2022-12-17T00:35:52.107Z,65.99
2022-12-17T00:38:18.819Z,66.26
2022-12-17T00:40:50.634Z,66.37
2022-12-17T00:43:17.405Z,66.24
2022-12-17T00:45:44.046Z,65.97
2022-12-17T00:48:10.684Z,66.57
2022-12-17T00:50:37.318Z,66.22
2022-12-17T00:53:03.937Z,66.36
2022-12-17T00:55:30.824Z,65.83
2022-12-17T00:57:57.766Z,66.38
2022-12-17T01:00:24.403Z,66.24
2022-12-17T01:02:51.121Z,65.94
2022-12-17T01:05:18.776Z,66.79
2022-12-17T01:07:45.442Z,66.01
2022-12-17T01:10:12.077Z,66.38
2022-12-17T01:12:38.706Z,66.40
2022-12-17T01:15:05.937Z,67.04
2022-12-17T01:17:32.591Z,66.02
2022-12-17T01:19:59.372Z,65.81
2022-12-17T01:22:26.022Z,65.92
2022-12-17T01:24:52.680Z,65.59
2022-12-17T01:27:22.786Z,66.18
2022-12-17T01:29:49.420Z,65.89
2022-12-17T01:32:16.119Z,65.46
2022-12-17T01:34:42.735Z,65.15
2022-12-17T01:37:09.347Z,65.13
2022-12-17T01:39:35.973Z,64.96
2022-12-17T01:42:02.607Z,65.67
2022-12-17T01:44:56.637Z,65.90
2022-12-17T01:47:35.288Z,65.97
2022-12-17T01:50:01.934Z,65.43
2022-12-17T01:52:28.555Z,66.28
2022-12-17T01:54:55.183Z,66.18
2022-12-17T01:57:21.821Z,66.32
2022-12-17T01:59:58.815Z,65.85
2022-12-17T02:02:25.656Z,66.49
2022-12-17T02:04:52.386Z,66.57
2022-12-17T02:07:28.033Z,66.02
2022-12-17T02:10:09.722Z,66.54
2022-12-17T02:12:42.569Z,65.93
2022-12-17T02:15:26.754Z,66.61
2022-12-17T02:17:56.661Z,66.03
2022-12-17T02:20:38.574Z,66.79
2022-12-17T02:23:09.582Z,66.30
2022-12-17T02:25:44.599Z,66.64
2022-12-17T02:28:11.218Z,65.53
2022-12-17T02:30:37.866Z,66.68
2022-12-17T02:33:04.523Z,66.43
2022-12-17T02:35:41.096Z,66.04
2022-12-17T02:38:24.292Z,66.70
2022-12-17T02:40:50.915Z,66.94
2022-12-17T02:43:17.533Z,66.91
2022-12-17T02:45:44.213Z,66.17
2022-12-17T02:48:10.848Z,66.42
2022-12-17T02:50:37.465Z,66.51
2022-12-17T02:53:04.092Z,66.26
2022-12-17T02:55:30.713Z,66.17
2022-12-17T02:57:57.422Z,66.09
2022-12-17T03:00:24.033Z,66.22
2022-12-17T03:02:50.776Z,66.41
2022-12-17T03:05:43.568Z,66.46
2022-12-17T03:08:04.244Z,66.34
2022-12-17T03:10:30.894Z,65.73
2022-12-17T03:12:57.506Z,65.85
2022-12-17T03:15:24.213Z,66.45
2022-12-17T03:17:50.859Z,65.84
2022-12-17T03:20:17.519Z,65.94
2022-12-17T03:22:44.140Z,65.99
2022-12-17T03:25:10.771Z,66.24
2022-12-17T03:27:37.682Z,65.69
2022-12-17T03:30:04.696Z,65.77
2022-12-17T03:32:31.346Z,65.74
2022-12-17T03:34:58.003Z,65.87
2022-12-17T03:37:24.627Z,66.05
2022-12-17T03:39:51.261Z,65.82
2022-12-17T03:42:17.876Z,65.56
2022-12-17T03:44:44.505Z,65.43
2022-12-17T03:47:11.126Z,65.55
2022-12-17T03:49:37.755Z,65.50
2022-12-17T03:52:04.378Z,66.00
2022-12-17T03:54:31.001Z,65.74
2022-12-17T03:56:57.630Z,66.47
2022-12-17T03:59:24.277Z,66.43
2022-12-17T04:01:50.986Z,66.29
2022-12-17T04:04:17.647Z,65.51
2022-12-17T04:06:44.277Z,66.38
2022-12-17T04:09:10.907Z,65.91
2022-12-17T04:11:37.543Z,66.17
2022-12-17T04:14:04.169Z,66.02
2022-12-17T04:16:30.801Z,66.28
2022-12-17T04:18:57.449Z,66.72
2022-12-17T04:21:24.089Z,66.64
2022-12-17T04:23:50.721Z,66.40
2022-12-17T04:26:17.337Z,66.44
2022-12-17T04:28:43.954Z,66.02
2022-12-17T04:31:10.670Z,66.40
2022-12-17T04:33:37.473Z,66.20
2022-12-17T04:36:04.342Z,65.86
2022-12-17T04:38:30.953Z,66.11
2022-12-17T04:40:57.576Z,65.95
2022-12-17T04:43:24.222Z,65.94
2022-12-17T04:45:52.111Z,66.62
2022-12-17T04:48:18.861Z,66.34
2022-12-17T04:50:45.532Z,66.74
2022-12-17T04:53:12.186Z,65.86
2022-12-17T04:55:38.836Z,66.24
2022-12-17T04:58:05.963Z,66.31
2022-12-17T05:00:32.615Z,66.39
2022-12-17T05:03:11.263Z,66.17
2022-12-17T05:05:37.910Z,65.76
2022-12-17T05:08:04.602Z,65.53
2022-12-17T05:10:31.216Z,65.67
2022-12-17T05:13:00.768Z,66.12
2022-12-17T05:15:27.404Z,65.82
2022-12-17T05:17:54.033Z,66.28
2022-12-17T05:20:20.680Z,66.08
2022-12-17T05:22:47.318Z,65.97
2022-12-17T05:25:13.961Z,66.33
2022-12-17T05:27:40.584Z,66.49
2022-12-17T05:30:07.694Z,66.02
2022-12-17T05:32:34.346Z,66.01
2022-12-17T05:35:00.969Z,66.03
2022-12-17T05:37:27.594Z,66.73
2022-12-17T05:39:54.237Z,66.62
2022-12-17T05:42:23.809Z,65.90
2022-12-17T05:44:50.608Z,66.18
2022-12-17T05:47:17.230Z,66.38
2022-12-17T05:49:43.846Z,66.00
2022-12-17T05:52:10.480Z,66.26
2022-12-17T05:54:37.121Z,66.69
2022-12-17T05:57:03.752Z,66.09
2022-12-17T05:59:30.361Z,66.17
2022-12-17T06:01:57.111Z,66.65
2022-12-17T06:04:23.779Z,66.29
2022-12-17T06:06:50.407Z,66.17
2022-12-17T06:09:17.048Z,66.53
2022-12-17T06:11:43.688Z,65.72
2022-12-17T06:14:10.314Z,66.17
2022-12-17T06:16:37.047Z,65.76
2022-12-17T06:19:03.715Z,66.00
2022-12-17T06:21:30.336Z,66.09
2022-12-17T06:23:57.269Z,65.61
2022-12-17T06:26:23.910Z,65.68
2022-12-17T06:28:50.554Z,66.37
2022-12-17T06:31:17.324Z,66.28
2022-12-17T06:33:43.975Z,65.63
2022-12-17T06:36:10.595Z,65.73
2022-12-17T06:38:37.245Z,66.33
2022-12-17T06:41:03.881Z,65.90
2022-12-17T06:43:30.513Z,66.07
2022-12-17T06:45:57.165Z,66.16
2022-12-17T06:48:23.793Z,66.49
2022-12-17T06:50:50.935Z,66.17
2022-12-17T06:53:17.589Z,66.23
2022-12-17T06:55:44.253Z,65.88
2022-12-17T06:58:10.874Z,65.97
2022-12-17T07:00:37.545Z,66.09
2022-12-17T07:03:04.276Z,66.57
2022-12-17T07:05:31.049Z,66.42
2022-12-17T07:08:00.874Z,66.13
2022-12-17T07:10:27.511Z,66.61
2022-12-17T07:12:54.166Z,66.16
2022-12-17T07:15:20.837Z,66.11
2022-12-17T07:17:57.080Z,66.84
2022-12-17T07:20:23.716Z,66.42
2022-12-17T07:22:55.086Z,65.96
2022-12-17T07:25:21.761Z,66.54
2022-12-17T07:27:55.305Z,66.72
2022-12-17T07:30:21.941Z,66.41
2022-12-17T07:32:57.260Z,66.97
2022-12-17T07:35:23.900Z,66.33
2022-12-17T07:37:50.520Z,66.65
2022-12-17T07:40:17.169Z,66.33
2022-12-17T07:42:43.813Z,66.48
2022-12-17T07:45:10.533Z,66.40
2022-12-17T07:47:37.187Z,66.60
2022-12-17T07:50:03.956Z,66.21
2022-12-17T07:52:30.594Z,66.18
2022-12-17T07:54:57.218Z,66.13
2022-12-17T07:57:23.830Z,66.14
2022-12-17T07:59:50.468Z,65.93
2022-12-17T08:02:17.287Z,66.31
2022-12-17T08:04:44.107Z,65.95
2022-12-17T08:07:14.045Z,66.31
2022-12-17T08:09:40.914Z,66.19
2022-12-17T08:12:07.559Z,65.99
2022-12-17T08:14:34.179Z,66.69
2022-12-17T08:17:00.990Z,66.87
2022-12-17T08:19:27.745Z,66.74
2022-12-17T08:21:54.394Z,66.10
2022-12-17T08:24:21.037Z,66.12
2022-12-17T08:26:48.456Z,65.93
2022-12-17T08:29:15.290Z,66.11
2022-12-17T08:31:41.910Z,65.99
2022-12-17T08:34:08.562Z,66.25
2022-12-17T08:36:35.220Z,65.95
2022-12-17T08:39:01.845Z,66.39
2022-12-17T08:41:28.508Z,65.44
2022-12-17T08:43:55.177Z,65.62
2022-12-17T08:48:48.577Z,65.64
2022-12-17T08:51:15.221Z,65.77
2022-12-17T08:53:42.485Z,65.38
2022-12-17T08:56:09.282Z,65.81
2022-12-17T08:58:35.912Z,65.64
2022-12-17T09:01:02.565Z,65.69
2022-12-17T09:03:29.252Z,65.36
2022-12-17T09:05:55.903Z,65.13
2022-12-17T09:08:22.573Z,65.77
2022-12-17T09:10:49.237Z,64.93
2022-12-17T09:13:15.855Z,65.41
2022-12-17T09:15:42.485Z,65.25
2022-12-17T09:18:09.122Z,65.10
2022-12-17T09:20:35.785Z,65.65
2022-12-17T09:23:02.429Z,65.62
2022-12-17T09:25:29.068Z,64.92
2022-12-17T09:28:00.518Z,64.80
2022-12-17T09:30:27.234Z,65.39
2022-12-17T09:32:53.913Z,65.26
2022-12-17T09:35:20.554Z,65.65
2022-12-17T09:37:56.625Z,65.11
2022-12-17T09:40:23.817Z,65.29
2022-12-17T09:43:04.098Z,65.11
2022-12-17T09:45:58.462Z,65.26
2022-12-17T09:48:32.684Z,66.05
2022-12-17T09:50:59.501Z,65.84
2022-12-17T09:53:33.009Z,65.12
2022-12-17T09:55:59.762Z,65.09
2022-12-17T09:58:27.011Z,65.94
2022-12-17T10:00:57.647Z,66.03
2022-12-17T10:03:27.482Z,65.03
2022-12-17T10:05:54.170Z,65.62
2022-12-17T10:08:21.089Z,64.96
2022-12-17T10:10:47.706Z,65.25
2022-12-17T10:13:16.058Z,65.11
2022-12-17T10:15:43.172Z,64.51
2022-12-17T10:18:11.075Z,64.71
2022-12-17T10:20:52.624Z,65.32
2022-12-17T10:23:26.489Z,64.75
2022-12-17T10:25:54.251Z,65.23
2022-12-17T10:28:25.026Z,64.66
2022-12-17T10:30:51.700Z,65.42
2022-12-17T10:33:19.564Z,64.86
2022-12-17T10:35:46.196Z,64.08
2022-12-17T10:38:21.140Z,64.46
2022-12-17T10:40:47.815Z,65.26
2022-12-17T10:43:40.669Z,64.46
2022-12-17T10:46:07.333Z,64.31
2022-12-17T10:48:33.995Z,64.29
2022-12-17T10:51:00.654Z,64.95
2022-12-17T10:53:27.294Z,64.77
2022-12-17T10:55:56.932Z,65.12
2022-12-17T10:58:25.783Z,64.12
2022-12-17T11:00:52.428Z,64.25
2022-12-17T11:03:52.582Z,64.57
2022-12-17T11:06:27.939Z,64.72
2022-12-17T11:08:54.660Z,64.21
2022-12-17T11:11:21.302Z,64.72
2022-12-17T11:13:48.579Z,64.27
2022-12-17T11:16:36.631Z,64.12
2022-12-17T11:19:46.479Z,64.50
2022-12-17T11:22:39.627Z,63.97
2022-12-17T11:25:27.253Z,64.58
2022-12-17T11:28:03.482Z,63.42
2022-12-17T11:30:31.101Z,64.12
2022-12-17T11:33:21.895Z,64.17
2022-12-17T11:36:11.450Z,63.73
2022-12-17T11:38:40.034Z,63.80
2022-12-17T11:41:21.451Z,63.22
2022-12-17T11:44:11.497Z,63.18
2022-12-17T11:46:49.708Z,64.01
2022-12-17T11:49:40.425Z,63.54
2022-12-17T11:52:35.792Z,64.11
2022-12-17T11:55:26.250Z,63.50
2022-12-17T11:57:58.040Z,63.78
2022-12-17T12:00:24.674Z,63.45
2022-12-17T12:03:10.395Z,63.64
2022-12-17T12:05:58.273Z,63.93
2022-12-17T12:08:30.542Z,63.02
2022-12-17T12:11:24.662Z,64.02
2022-12-17T12:13:58.399Z,63.60
2022-12-17T12:17:12.981Z,62.97
2022-12-17T12:19:51.485Z,62.81
2022-12-17T12:22:32.789Z,62.83
2022-12-17T12:25:15.885Z,62.53
2022-12-17T12:27:48.510Z,62.05
2022-12-17T12:30:23.504Z,62.17
2022-12-17T12:33:47.443Z,62.33
2022-12-17T12:36:15.416Z,62.09
2022-12-17T12:38:46.385Z,62.88
2022-12-17T12:41:56.571Z,62.77
2022-12-17T12:44:29.067Z,63.03
2022-12-17T12:47:00.772Z,63.02
2022-12-17T12:49:31.546Z,62.02
2022-12-17T12:51:58.698Z,62.75
2022-12-17T12:54:33.063Z,62.13
2022-12-17T12:56:59.710Z,62.42
2022-12-17T12:59:31.020Z,62.08
2022-12-17T13:01:57.802Z,62.06
2022-12-17T13:04:36.041Z,62.95
2022-12-17T13:07:02.663Z,62.53
2022-12-17T13:09:34.271Z,62.34
2022-12-17T13:12:04.523Z,62.21
2022-12-17T13:14:55.859Z,61.39
2022-12-17T13:17:34.589Z,60.67
2022-12-17T13:20:22.430Z,61.30
2022-12-17T13:22:53.717Z,61.57
2022-12-17T13:25:23.272Z,60.68
2022-12-17T13:27:50.144Z,61.26
2022-12-17T13:30:20.757Z,60.99
2022-12-17T13:33:08.581Z,59.81
2022-12-17T13:36:12.950Z,60.95
2022-12-17T13:38:45.651Z,60.30
2022-12-17T13:41:13.567Z,60.64
2022-12-17T13:44:01.613Z,61.01
2022-12-17T13:46:30.023Z,60.88
2022-12-17T13:48:58.283Z,60.92
2022-12-17T13:51:29.488Z,61.39
2022-12-17T13:54:01.512Z,60.94
2022-12-17T13:56:34.879Z,60.70
2022-12-17T13:59:08.376Z,61.48
2022-12-17T14:01:47.036Z,61.57
2022-12-17T14:04:29.472Z,61.23
2022-12-17T14:06:57.904Z,61.82
2022-12-17T14:09:32.602Z,60.40
2022-12-17T14:11:59.300Z,60.76
2022-12-17T14:14:33.856Z,61.51
2022-12-17T14:17:00.620Z,61.23
2022-12-17T14:19:27.441Z,62.07
2022-12-17T14:21:54.223Z,61.23
2022-12-17T14:24:21.857Z,60.97
2022-12-17T14:26:49.974Z,61.77
2022-12-17T14:29:23.464Z,60.92
2022-12-17T14:31:54.714Z,61.28
2022-12-17T14:34:21.411Z,60.57
2022-12-17T14:36:56.565Z,60.72
2022-12-17T14:39:25.141Z,60.66
2022-12-17T14:41:51.854Z,60.09
2022-12-17T14:44:26.083Z,60.64
2022-12-17T14:46:54.978Z,61.29
2022-12-17T14:49:21.600Z,61.59
2022-12-17T14:51:48.381Z,61.43
2022-12-17T14:54:14.861Z,61.81
2022-12-17T14:56:41.727Z,60.81
2022-12-17T14:59:27.055Z,60.96
2022-12-17T15:01:56.183Z,61.41
2022-12-17T15:04:23.252Z,61.15
2022-12-17T15:06:49.908Z,61.62
2022-12-17T15:09:16.555Z,61.52
2022-12-17T15:11:43.204Z,61.58
2022-12-17T15:14:09.865Z,61.10
2022-12-17T15:16:36.524Z,62.21
2022-12-17T15:19:03.194Z,62.03
2022-12-17T15:21:29.830Z,61.20
2022-12-17T15:23:56.449Z,61.31
2022-12-17T15:26:23.093Z,61.36
2022-12-17T15:28:49.706Z,62.03
2022-12-17T15:31:19.563Z,61.88
2022-12-17T15:33:48.586Z,61.69
2022-12-17T15:36:15.248Z,61.85
2022-12-17T15:38:41.878Z,61.79
2022-12-17T15:41:08.493Z,61.25
2022-12-17T15:43:35.247Z,61.32
2022-12-17T15:46:01.999Z,61.64
2022-12-17T15:48:28.690Z,61.64
2022-12-17T15:50:55.340Z,62.04
2022-12-17T15:53:21.973Z,61.61
2022-12-17T15:55:48.592Z,62.00
2022-12-17T15:58:15.237Z,62.72
2022-12-17T16:00:41.870Z,61.47
2022-12-17T16:03:08.671Z,62.07
2022-12-17T16:05:35.399Z,62.12
2022-12-17T16:08:02.044Z,62.33
2022-12-17T16:10:28.917Z,61.87
2022-12-17T16:12:55.552Z,62.25
2022-12-17T16:15:22.194Z,61.90
2022-12-17T16:17:48.827Z,61.82
2022-12-17T16:20:15.476Z,62.81
2022-12-17T16:22:42.139Z,62.16
2022-12-17T16:25:08.855Z,62.31
2022-12-17T16:27:35.593Z,62.08
2022-12-17T16:30:02.343Z,62.88
2022-12-17T16:32:34.567Z,63.09
2022-12-17T16:35:02.930Z,62.39
2022-12-17T16:37:29.553Z,61.64
2022-12-17T16:39:59.990Z,62.17
2022-12-17T16:42:27.128Z,61.74
2022-12-17T16:44:53.743Z,62.17
2022-12-17T16:47:20.772Z,61.87
2022-12-17T16:49:50.036Z,62.43
2022-12-17T16:52:16.690Z,62.38
2022-12-17T16:54:43.349Z,62.53
2022-12-17T16:57:09.982Z,62.71
2022-12-17T16:59:36.630Z,62.50
2022-12-17T17:02:03.415Z,62.98
2022-12-17T17:04:30.197Z,62.16
2022-12-17T17:06:57.095Z,62.31
2022-12-17T17:09:24.255Z,62.02
2022-12-17T17:11:52.079Z,62.44
2022-12-17T17:14:19.174Z,62.21
2022-12-17T17:16:45.807Z,62.63
2022-12-17T17:19:12.453Z,62.79
2022-12-17T17:21:40.425Z,62.27
2022-12-17T17:24:15.365Z,62.88
2022-12-17T17:26:45.292Z,62.55
2022-12-17T17:29:12.015Z,62.06
2022-12-17T17:34:25.363Z,62.19
2022-12-17T17:36:52.008Z,62.25
2022-12-17T17:39:18.660Z,62.50
2022-12-17T17:41:45.295Z,62.93
2022-12-17T17:44:12.539Z,63.18
2022-12-17T17:46:39.346Z,63.29
2022-12-17T17:49:06.804Z,62.31
2022-12-17T17:52:07.945Z,62.07
2022-12-17T17:54:21.588Z,63.19
2022-12-17T17:56:48.219Z,63.22
2022-12-17T17:59:15.612Z,62.89
2022-12-17T18:01:44.187Z,62.37
2022-12-17T18:04:12.928Z,62.80
2022-12-17T18:06:57.429Z,62.16
2022-12-17T18:09:27.841Z,62.36
2022-12-17T18:11:54.459Z,62.64
2022-12-17T18:14:21.088Z,63.79
2022-12-17T18:16:47.945Z,62.92
2022-12-17T18:19:21.793Z,63.23
2022-12-17T18:21:48.423Z,62.65
2022-12-17T18:24:16.839Z,63.16
2022-12-17T18:26:44.190Z,62.23
2022-12-17T18:29:18.981Z,62.89
2022-12-17T18:31:51.353Z,62.87
2022-12-17T18:34:19.540Z,63.15
2022-12-17T18:36:46.363Z,62.26
2022-12-17T18:39:14.519Z,62.56
2022-12-17T18:41:41.226Z,61.97
2022-12-17T18:44:07.854Z,61.30
2022-12-17T18:46:34.621Z,62.10
2022-12-17T18:49:06.052Z,62.25
2022-12-17T18:51:33.882Z,60.87
2022-12-17T18:54:01.217Z,61.23
2022-12-17T18:56:59.326Z,61.43
2022-12-17T18:59:24.222Z,61.70
2022-12-17T19:01:54.156Z,61.15
2022-12-17T19:04:20.879Z,61.90
2022-12-17T19:06:47.773Z,61.32
2022-12-17T19:09:25.397Z,60.95
2022-12-17T19:11:52.154Z,61.27
2022-12-17T19:14:18.831Z,61.28
2022-12-17T19:16:45.598Z,60.74
2022-12-17T19:19:12.412Z,60.97
2022-12-17T19:21:39.093Z,61.50
2022-12-17T19:24:07.392Z,61.00
2022-12-17T19:26:34.053Z,61.01
2022-12-17T19:29:00.838Z,60.93
2022-12-17T19:31:29.026Z,60.36
2022-12-17T19:33:56.345Z,60.19
2022-12-17T19:36:28.006Z,60.89
2022-12-17T19:38:57.706Z,61.56
2022-12-17T19:41:24.740Z,60.99
2022-12-17T19:43:55.722Z,61.54
2022-12-17T19:46:22.448Z,62.36
2022-12-17T19:48:49.588Z,61.97
2022-12-17T19:51:18.014Z,60.39
2022-12-17T19:53:44.827Z,61.90
2022-12-17T19:56:16.280Z,61.32
2022-12-17T19:58:42.987Z,60.80
2022-12-17T20:01:16.745Z,61.44
2022-12-17T20:03:44.201Z,60.67
2022-12-17T20:06:11.468Z,61.89
2022-12-17T20:08:38.562Z,62.33
2022-12-17T20:11:06.787Z,61.28
2022-12-17T20:13:33.430Z,61.26
2022-12-17T20:16:04.071Z,62.44
2022-12-17T20:18:30.728Z,62.48
2022-12-17T20:21:03.968Z,61.99
2022-12-17T20:23:30.618Z,62.60
2022-12-17T20:26:23.471Z,62.90
2022-12-17T20:28:50.157Z,62.67
2022-12-17T20:31:16.881Z,62.84
2022-12-17T20:33:43.717Z,63.25
2022-12-17T20:36:12.252Z,62.72
2022-12-17T20:38:39.239Z,62.39
2022-12-17T20:41:17.527Z,62.43
2022-12-17T20:43:44.284Z,62.05
2022-12-17T20:46:11.122Z,61.38
2022-12-17T20:48:38.636Z,61.57
2022-12-17T20:51:07.091Z,62.18
2022-12-17T20:53:34.184Z,61.47
2022-12-17T20:56:05.293Z,61.52
2022-12-17T20:58:31.916Z,61.61
2022-12-17T21:01:03.417Z,61.94
2022-12-17T21:03:30.140Z,62.02
2022-12-17T21:05:56.836Z,61.40
2022-12-17T21:08:23.489Z,61.88
2022-12-17T21:10:56.004Z,61.27
2022-12-17T21:13:22.665Z,61.73
2022-12-17T21:15:50.031Z,61.73
2022-12-17T21:18:16.650Z,62.43
2022-12-17T21:20:43.869Z,61.19
2022-12-17T21:23:10.533Z,62.17
2022-12-17T21:25:39.951Z,61.58
2022-12-17T21:28:06.753Z,61.15
2022-12-17T21:30:36.207Z,61.14
2022-12-17T21:33:02.947Z,61.34
2022-12-17T21:35:29.613Z,61.73
2022-12-17T21:37:56.374Z,61.60
2022-12-17T21:40:23.062Z,60.71
2022-12-17T21:42:50.761Z,61.13
2022-12-17T21:45:17.430Z,61.26
2022-12-17T21:47:44.245Z,61.47
2022-12-17T21:50:10.890Z,60.75
2022-12-17T21:52:37.524Z,60.74
2022-12-17T21:55:04.495Z,61.06
2022-12-17T21:57:31.127Z,61.58
2022-12-17T21:59:57.766Z,61.38
2022-12-17T22:02:24.553Z,61.45
2022-12-17T22:04:51.340Z,62.13
2022-12-17T22:07:19.705Z,62.15
2022-12-17T22:10:13.269Z,62.82
2022-12-17T22:12:43.065Z,62.28
2022-12-17T22:15:10.495Z,62.28
2022-12-17T22:17:37.977Z,62.92
2022-12-17T22:20:05.224Z,63.44
2022-12-17T22:22:31.898Z,63.14
2022-12-17T22:25:03.056Z,62.52
2022-12-17T22:27:34.537Z,63.67
2022-12-17T22:30:01.339Z,62.81
2022-12-17T22:32:28.213Z,63.39
2022-12-17T22:36:21.341Z,63.30
2022-12-17T22:41:50.487Z,63.77
2022-12-17T22:44:30.354Z,62.85
2022-12-17T22:44:49.263Z,63.64
2022-12-17T22:46:03.286Z,63.22
2022-12-17T22:48:31.547Z,63.29
2022-12-17T22:51:08.651Z,64.18
2022-12-17T22:53:42.759Z,63.97
2022-12-17T22:56:18.596Z,64.33
2022-12-17T22:58:56.881Z,63.58
2022-12-17T23:01:23.612Z,63.50
2022-12-17T23:03:53.883Z,63.57
2022-12-17T23:06:20.984Z,62.71
2022-12-17T23:08:47.630Z,62.93
2022-12-17T23:11:17.883Z,62.79
2022-12-17T23:13:44.590Z,62.51
2022-12-17T23:16:12.172Z,63.15
2022-12-17T23:18:39.666Z,62.52
2022-12-17T23:21:26.500Z,62.94
2022-12-17T23:23:53.692Z,62.69
2022-12-17T23:26:25.034Z,62.66
2022-12-17T23:28:57.735Z,63.15
2022-12-17T23:31:24.612Z,62.34
2022-12-17T23:33:51.700Z,62.11
2022-12-17T23:36:21.651Z,62.74
2022-12-17T23:38:48.509Z,63.29
2022-12-17T23:41:18.188Z,62.49
2022-12-17T23:43:45.029Z,62.92
2022-12-17T23:46:11.974Z,63.37
2022-12-17T23:48:45.147Z,63.08
2022-12-17T23:51:12.729Z,63.27
2022-12-17T23:53:39.728Z,64.35
2022-12-17T23:56:10.495Z,63.99
2022-12-17T23:58:37.538Z,65.09
